sensor_id;sensor_type;location;lat;lon;timestamp;P1;durP1;ratioP1;P2;durP2;ratioP2
28078;SDS011;15388;42.238;24.684;2023-07-31T00:00:51;3.95;;;2.00;;
28078;SDS011;15388;42.238;24.684;2023-07-31T00:03:16;3.60;;;1.70;;
28078;SDS011;15388;42.238;24.684;2023-07-31T00:05:42;4.75;;;2.40;;
28078;SDS011;15388;42.238;24.684;2023-07-31T00:08:07;2.92;;;1.90;;
28078;SDS011;15388;42.238;24.684;2023-07-31T00:10:32;3.35;;;2.10;;
28078;SDS011;15388;42.238;24.684;2023-07-31T00:12:58;3.20;;;1.80;;
28078;SDS011;15388;42.238;24.684;2023-07-31T00:15:25;3.80;;;1.83;;
28078;SDS011;15388;42.238;24.684;2023-07-31T00:17:50;8.88;;;2.70;;
28078;SDS011;15388;42.238;24.684;2023-07-31T00:20:15;5.32;;;1.92;;
28078;SDS011;15388;42.238;24.684;2023-07-31T00:22:41;3.58;;;1.70;;
28078;SDS011;15388;42.238;24.684;2023-07-31T00:25:06;3.08;;;1.80;;
28078;SDS011;15388;42.238;24.684;2023-07-31T00:27:32;2.50;;;1.85;;
28078;SDS011;15388;42.238;24.684;2023-07-31T00:29:57;5.38;;;2.40;;
28078;SDS011;15388;42.238;24.684;2023-07-31T00:32:23;4.18;;;2.15;;
28078;SDS011;15388;42.238;24.684;2023-07-31T00:34:48;5.10;;;1.80;;
28078;SDS011;15388;42.238;24.684;2023-07-31T00:37:13;5.03;;;2.03;;
28078;SDS011;15388;42.238;24.684;2023-07-31T00:39:40;3.97;;;2.03;;
28078;SDS011;15388;42.238;24.684;2023-07-31T00:42:05;2.33;;;1.75;;
28078;SDS011;15388;42.238;24.684;2023-07-31T00:44:33;2.80;;;1.80;;
28078;SDS011;15388;42.238;24.684;2023-07-31T00:46:58;4.65;;;1.98;;
28078;SDS011;15388;42.238;24.684;2023-07-31T00:49:24;3.85;;;2.03;;
28078;SDS011;15388;42.238;24.684;2023-07-31T00:51:49;5.63;;;2.17;;
28078;SDS011;15388;42.238;24.684;2023-07-31T00:54:15;2.80;;;1.92;;
28078;SDS011;15388;42.238;24.684;2023-07-31T00:56:40;3.28;;;2.40;;
28078;SDS011;15388;42.238;24.684;2023-07-31T00:59:07;5.78;;;2.47;;
28078;SDS011;15388;42.238;24.684;2023-07-31T01:01:32;7.97;;;2.78;;
28078;SDS011;15388;42.238;24.684;2023-07-31T01:03:57;2.50;;;2.30;;
28078;SDS011;15388;42.238;24.684;2023-07-31T01:11:50;5.20;;;2.53;;
28078;SDS011;15388;42.238;24.684;2023-07-31T01:14:17;6.60;;;3.45;;
28078;SDS011;15388;42.238;24.684;2023-07-31T01:16:42;5.45;;;2.90;;
28078;SDS011;15388;42.238;24.684;2023-07-31T01:19:07;4.30;;;2.08;;
28078;SDS011;15388;42.238;24.684;2023-07-31T01:26:38;6.20;;;3.13;;
28078;SDS011;15388;42.238;24.684;2023-07-31T01:31:29;4.37;;;2.17;;
28078;SDS011;15388;42.238;24.684;2023-07-31T01:33:56;10.30;;;2.75;;
28078;SDS011;15388;42.238;24.684;2023-07-31T01:36:22;4.80;;;2.88;;
28078;SDS011;15388;42.238;24.684;2023-07-31T01:38:48;10.68;;;2.42;;
28078;SDS011;15388;42.238;24.684;2023-07-31T01:41:16;3.92;;;2.45;;
28078;SDS011;15388;42.238;24.684;2023-07-31T01:43:41;6.22;;;2.50;;
28078;SDS011;15388;42.238;24.684;2023-07-31T01:46:06;3.58;;;2.45;;
28078;SDS011;15388;42.238;24.684;2023-07-31T01:48:32;5.60;;;2.55;;
28078;SDS011;15388;42.238;24.684;2023-07-31T01:51:00;2.88;;;1.88;;
28078;SDS011;15388;42.238;24.684;2023-07-31T01:53:26;3.55;;;2.22;;
28078;SDS011;15388;42.238;24.684;2023-07-31T01:55:51;2.83;;;2.20;;
28078;SDS011;15388;42.238;24.684;2023-07-31T01:58:17;8.77;;;2.28;;
28078;SDS011;15388;42.238;24.684;2023-07-31T02:00:42;5.28;;;2.47;;
28078;SDS011;15388;42.238;24.684;2023-07-31T02:03:07;8.27;;;2.00;;
28078;SDS011;15388;42.238;24.684;2023-07-31T02:05:33;3.83;;;2.35;;
28078;SDS011;15388;42.238;24.684;2023-07-31T02:07:58;4.68;;;1.98;;
28078;SDS011;15388;42.238;24.684;2023-07-31T02:10:23;5.65;;;2.17;;
28078;SDS011;15388;42.238;24.684;2023-07-31T02:12:49;5.32;;;2.63;;
28078;SDS011;15388;42.238;24.684;2023-07-31T02:15:14;6.10;;;2.22;;
28078;SDS011;15388;42.238;24.684;2023-07-31T02:17:39;5.85;;;2.83;;
28078;SDS011;15388;42.238;24.684;2023-07-31T02:20:05;3.42;;;1.95;;
28078;SDS011;15388;42.238;24.684;2023-07-31T02:22:30;2.65;;;2.22;;
28078;SDS011;15388;42.238;24.684;2023-07-31T02:24:56;3.50;;;2.67;;
28078;SDS011;15388;42.238;24.684;2023-07-31T02:27:21;7.10;;;2.58;;
28078;SDS011;15388;42.238;24.684;2023-07-31T02:29:49;4.85;;;2.80;;
28078;SDS011;15388;42.238;24.684;2023-07-31T02:32:14;9.25;;;2.97;;
28078;SDS011;15388;42.238;24.684;2023-07-31T02:34:39;5.60;;;3.50;;
28078;SDS011;15388;42.238;24.684;2023-07-31T02:37:05;8.80;;;3.90;;
28078;SDS011;15388;42.238;24.684;2023-07-31T02:39:30;3.72;;;3.20;;
28078;SDS011;15388;42.238;24.684;2023-07-31T02:41:55;7.72;;;3.28;;
28078;SDS011;15388;42.238;24.684;2023-07-31T02:44:21;12.20;;;4.20;;
28078;SDS011;15388;42.238;24.684;2023-07-31T02:46:46;7.68;;;4.00;;
28078;SDS011;15388;42.238;24.684;2023-07-31T02:49:11;11.73;;;4.85;;
28078;SDS011;15388;42.238;24.684;2023-07-31T02:51:37;8.05;;;4.53;;
28078;SDS011;15388;42.238;24.684;2023-07-31T02:54:02;5.65;;;5.15;;
28078;SDS011;15388;42.238;24.684;2023-07-31T02:56:27;8.20;;;5.25;;
28078;SDS011;15388;42.238;24.684;2023-07-31T02:58:53;9.15;;;5.22;;
28078;SDS011;15388;42.238;24.684;2023-07-31T03:01:18;5.60;;;4.65;;
28078;SDS011;15388;42.238;24.684;2023-07-31T03:03:43;6.03;;;5.43;;
28078;SDS011;15388;42.238;24.684;2023-07-31T03:06:09;9.38;;;5.47;;
28078;SDS011;15388;42.238;24.684;2023-07-31T03:08:34;7.28;;;6.57;;
28078;SDS011;15388;42.238;24.684;2023-07-31T03:10:59;21.60;;;5.70;;
28078;SDS011;15388;42.238;24.684;2023-07-31T03:13:25;8.65;;;5.47;;
28078;SDS011;15388;42.238;24.684;2023-07-31T03:15:50;7.93;;;6.28;;
28078;SDS011;15388;42.238;24.684;2023-07-31T03:18:15;7.70;;;6.90;;
28078;SDS011;15388;42.238;24.684;2023-07-31T03:20:44;16.65;;;7.57;;
28078;SDS011;15388;42.238;24.684;2023-07-31T03:23:09;10.07;;;7.22;;
28078;SDS011;15388;42.238;24.684;2023-07-31T03:25:35;9.32;;;7.32;;
28078;SDS011;15388;42.238;24.684;2023-07-31T03:28:00;9.82;;;8.05;;
28078;SDS011;15388;42.238;24.684;2023-07-31T03:30:26;10.63;;;8.10;;
28078;SDS011;15388;42.238;24.684;2023-07-31T03:32:51;8.80;;;7.95;;
28078;SDS011;15388;42.238;24.684;2023-07-31T03:35:17;9.13;;;7.70;;
28078;SDS011;15388;42.238;24.684;2023-07-31T03:37:42;8.73;;;7.85;;
28078;SDS011;15388;42.238;24.684;2023-07-31T03:40:07;15.25;;;9.23;;
28078;SDS011;15388;42.238;24.684;2023-07-31T03:42:33;10.43;;;9.20;;
28078;SDS011;15388;42.238;24.684;2023-07-31T03:44:58;10.55;;;9.57;;
28078;SDS011;15388;42.238;24.684;2023-07-31T03:47:24;11.43;;;8.98;;
28078;SDS011;15388;42.238;24.684;2023-07-31T03:49:49;10.70;;;9.65;;
28078;SDS011;15388;42.238;24.684;2023-07-31T03:52:14;10.48;;;9.35;;
28078;SDS011;15388;42.238;24.684;2023-07-31T03:54:40;13.77;;;8.55;;
28078;SDS011;15388;42.238;24.684;2023-07-31T03:57:05;13.68;;;9.73;;
28078;SDS011;15388;42.238;24.684;2023-07-31T03:59:30;10.20;;;9.20;;
28078;SDS011;15388;42.238;24.684;2023-07-31T04:01:56;10.70;;;9.05;;
28078;SDS011;15388;42.238;24.684;2023-07-31T04:04:21;10.90;;;9.52;;
28078;SDS011;15388;42.238;24.684;2023-07-31T04:06:46;10.73;;;9.73;;
28078;SDS011;15388;42.238;24.684;2023-07-31T04:09:12;14.13;;;9.95;;
28078;SDS011;15388;42.238;24.684;2023-07-31T04:11:37;10.23;;;8.57;;
28078;SDS011;15388;42.238;24.684;2023-07-31T04:14:04;9.73;;;8.43;;
28078;SDS011;15388;42.238;24.684;2023-07-31T04:16:29;13.10;;;9.65;;
28078;SDS011;15388;42.238;24.684;2023-07-31T04:18:55;10.48;;;9.45;;
28078;SDS011;15388;42.238;24.684;2023-07-31T04:21:20;10.70;;;9.20;;
28078;SDS011;15388;42.238;24.684;2023-07-31T04:23:45;11.38;;;10.18;;
28078;SDS011;15388;42.238;24.684;2023-07-31T04:26:11;14.05;;;9.98;;
28078;SDS011;15388;42.238;24.684;2023-07-31T04:28:36;10.63;;;9.48;;
28078;SDS011;15388;42.238;24.684;2023-07-31T04:31:01;10.60;;;9.60;;
28078;SDS011;15388;42.238;24.684;2023-07-31T04:33:27;14.07;;;10.80;;
28078;SDS011;15388;42.238;24.684;2023-07-31T04:35:52;11.13;;;10.15;;
28078;SDS011;15388;42.238;24.684;2023-07-31T04:38:21;9.77;;;8.77;;
28078;SDS011;15388;42.238;24.684;2023-07-31T04:40:47;10.57;;;9.15;;
28078;SDS011;15388;42.238;24.684;2023-07-31T04:43:12;13.45;;;10.23;;
28078;SDS011;15388;42.238;24.684;2023-07-31T04:45:37;12.40;;;8.85;;
28078;SDS011;15388;42.238;24.684;2023-07-31T04:48:03;12.10;;;9.20;;
28078;SDS011;15388;42.238;24.684;2023-07-31T04:50:28;9.90;;;8.82;;
28078;SDS011;15388;42.238;24.684;2023-07-31T04:52:55;10.50;;;9.52;;
28078;SDS011;15388;42.238;24.684;2023-07-31T04:55:20;10.15;;;9.23;;
28078;SDS011;15388;42.238;24.684;2023-07-31T04:57:45;11.50;;;9.23;;
28078;SDS011;15388;42.238;24.684;2023-07-31T05:00:11;9.52;;;8.63;;
28078;SDS011;15388;42.238;24.684;2023-07-31T05:02:36;10.18;;;8.80;;
28078;SDS011;15388;42.238;24.684;2023-07-31T05:05:02;9.77;;;8.80;;
28078;SDS011;15388;42.238;24.684;2023-07-31T05:07:27;8.75;;;7.95;;
28078;SDS011;15388;42.238;24.684;2023-07-31T05:09:52;10.35;;;8.35;;
28078;SDS011;15388;42.238;24.684;2023-07-31T05:12:18;11.30;;;8.93;;
28078;SDS011;15388;42.238;24.684;2023-07-31T05:14:43;9.25;;;8.25;;
28078;SDS011;15388;42.238;24.684;2023-07-31T05:17:08;8.05;;;7.32;;
28078;SDS011;15388;42.238;24.684;2023-07-31T05:19:34;9.88;;;8.35;;
28078;SDS011;15388;42.238;24.684;2023-07-31T05:21:59;10.35;;;7.80;;
28078;SDS011;15388;42.238;24.684;2023-07-31T05:24:24;9.07;;;8.23;;
28078;SDS011;15388;42.238;24.684;2023-07-31T05:26:50;8.95;;;8.05;;
28078;SDS011;15388;42.238;24.684;2023-07-31T05:29:15;7.97;;;7.20;;
28078;SDS011;15388;42.238;24.684;2023-07-31T05:31:41;9.07;;;7.55;;
28078;SDS011;15388;42.238;24.684;2023-07-31T05:34:07;13.40;;;7.53;;
28078;SDS011;15388;42.238;24.684;2023-07-31T05:36:32;10.65;;;7.88;;
28078;SDS011;15388;42.238;24.684;2023-07-31T05:38:57;9.13;;;8.23;;
28078;SDS011;15388;42.238;24.684;2023-07-31T05:41:23;8.60;;;7.78;;
28078;SDS011;15388;42.238;24.684;2023-07-31T05:43:48;7.88;;;7.15;;
28078;SDS011;15388;42.238;24.684;2023-07-31T05:46:13;10.45;;;8.55;;
28078;SDS011;15388;42.238;24.684;2023-07-31T05:48:39;9.98;;;8.98;;
28078;SDS011;15388;42.238;24.684;2023-07-31T05:51:04;15.40;;;8.88;;
28078;SDS011;15388;42.238;24.684;2023-07-31T05:53:29;15.65;;;9.15;;
28078;SDS011;15388;42.238;24.684;2023-07-31T05:55:55;16.88;;;9.98;;
28078;SDS011;15388;42.238;24.684;2023-07-31T05:58:20;11.15;;;10.02;;
28078;SDS011;15388;42.238;24.684;2023-07-31T06:00:45;11.35;;;10.25;;
28078;SDS011;15388;42.238;24.684;2023-07-31T06:03:11;11.82;;;10.55;;
28078;SDS011;15388;42.238;24.684;2023-07-31T06:05:36;10.15;;;9.15;;
28078;SDS011;15388;42.238;24.684;2023-07-31T06:08:01;14.48;;;9.45;;
28078;SDS011;15388;42.238;24.684;2023-07-31T06:10:27;10.82;;;9.82;;
28078;SDS011;15388;42.238;24.684;2023-07-31T06:12:53;11.63;;;10.43;;
28078;SDS011;15388;42.238;24.684;2023-07-31T06:15:19;10.68;;;9.75;;
28078;SDS011;15388;42.238;24.684;2023-07-31T06:17:45;10.60;;;9.57;;
28078;SDS011;15388;42.238;24.684;2023-07-31T06:20:10;11.75;;;10.55;;
28078;SDS011;15388;42.238;24.684;2023-07-31T06:22:35;10.82;;;9.77;;
28078;SDS011;15388;42.238;24.684;2023-07-31T06:25:01;11.88;;;9.90;;
28078;SDS011;15388;42.238;24.684;2023-07-31T06:27:26;11.52;;;10.10;;
28078;SDS011;15388;42.238;24.684;2023-07-31T06:29:51;12.10;;;10.77;;
28078;SDS011;15388;42.238;24.684;2023-07-31T06:32:17;10.93;;;9.82;;
28078;SDS011;15388;42.238;24.684;2023-07-31T06:34:42;12.27;;;11.18;;
28078;SDS011;15388;42.238;24.684;2023-07-31T06:37:07;10.45;;;9.52;;
28078;SDS011;15388;42.238;24.684;2023-07-31T06:39:33;12.23;;;10.93;;
28078;SDS011;15388;42.238;24.684;2023-07-31T06:41:58;13.23;;;12.02;;
28078;SDS011;15388;42.238;24.684;2023-07-31T06:44:23;15.07;;;12.45;;
28078;SDS011;15388;42.238;24.684;2023-07-31T06:46:49;13.07;;;11.73;;
28078;SDS011;15388;42.238;24.684;2023-07-31T06:49:14;12.52;;;11.43;;
28078;SDS011;15388;42.238;24.684;2023-07-31T06:51:42;13.80;;;12.55;;
28078;SDS011;15388;42.238;24.684;2023-07-31T06:54:09;14.07;;;11.93;;
28078;SDS011;15388;42.238;24.684;2023-07-31T06:56:35;15.85;;;14.45;;
28078;SDS011;15388;42.238;24.684;2023-07-31T06:59:01;14.48;;;13.18;;
28078;SDS011;15388;42.238;24.684;2023-07-31T07:01:26;15.02;;;13.57;;
28078;SDS011;15388;42.238;24.684;2023-07-31T07:03:52;13.67;;;12.23;;
28078;SDS011;15388;42.238;24.684;2023-07-31T07:06:18;10.85;;;9.95;;
28078;SDS011;15388;42.238;24.684;2023-07-31T07:08:43;11.70;;;10.50;;
28078;SDS011;15388;42.238;24.684;2023-07-31T07:11:09;12.05;;;10.18;;
28078;SDS011;15388;42.238;24.684;2023-07-31T07:13:34;12.38;;;11.05;;
28078;SDS011;15388;42.238;24.684;2023-07-31T07:15:59;12.00;;;10.88;;
28078;SDS011;15388;42.238;24.684;2023-07-31T07:18:25;11.65;;;10.55;;
28078;SDS011;15388;42.238;24.684;2023-07-31T07:20:51;12.20;;;10.35;;
28078;SDS011;15388;42.238;24.684;2023-07-31T07:23:16;10.63;;;9.68;;
28078;SDS011;15388;42.238;24.684;2023-07-31T07:25:42;12.65;;;11.48;;
28078;SDS011;15388;42.238;24.684;2023-07-31T07:28:08;10.87;;;9.87;;
28078;SDS011;15388;42.238;24.684;2023-07-31T07:30:33;11.68;;;10.57;;
28078;SDS011;15388;42.238;24.684;2023-07-31T07:32:58;11.90;;;10.75;;
28078;SDS011;15388;42.238;24.684;2023-07-31T07:35:24;11.88;;;10.88;;
28078;SDS011;15388;42.238;24.684;2023-07-31T07:37:49;21.48;;;11.05;;
28078;SDS011;15388;42.238;24.684;2023-07-31T07:40:15;11.00;;;10.00;;
28078;SDS011;15388;42.238;24.684;2023-07-31T07:42:41;12.15;;;10.85;;
28078;SDS011;15388;42.238;24.684;2023-07-31T07:45:06;12.35;;;11.20;;
28078;SDS011;15388;42.238;24.684;2023-07-31T07:47:32;10.82;;;9.93;;
28078;SDS011;15388;42.238;24.684;2023-07-31T07:49:57;11.38;;;10.23;;
28078;SDS011;15388;42.238;24.684;2023-07-31T07:52:22;11.10;;;10.10;;
28078;SDS011;15388;42.238;24.684;2023-07-31T07:54:48;10.10;;;9.07;;
28078;SDS011;15388;42.238;24.684;2023-07-31T07:57:13;9.27;;;8.48;;
28078;SDS011;15388;42.238;24.684;2023-07-31T07:59:38;9.88;;;8.98;;
28078;SDS011;15388;42.238;24.684;2023-07-31T08:02:04;10.32;;;9.52;;
28078;SDS011;15388;42.238;24.684;2023-07-31T08:04:29;17.10;;;9.73;;
28078;SDS011;15388;42.238;24.684;2023-07-31T08:06:54;9.98;;;9.07;;
28078;SDS011;15388;42.238;24.684;2023-07-31T08:09:20;10.13;;;9.20;;
28078;SDS011;15388;42.238;24.684;2023-07-31T08:11:45;10.80;;;9.70;;
28078;SDS011;15388;42.238;24.684;2023-07-31T08:14:10;10.43;;;9.50;;
28078;SDS011;15388;42.238;24.684;2023-07-31T08:16:36;11.55;;;8.75;;
28078;SDS011;15388;42.238;24.684;2023-07-31T08:19:01;11.45;;;10.35;;
28078;SDS011;15388;42.238;24.684;2023-07-31T08:21:27;10.05;;;9.13;;
28078;SDS011;15388;42.238;24.684;2023-07-31T08:23:52;10.02;;;9.13;;
28078;SDS011;15388;42.238;24.684;2023-07-31T08:26:18;8.90;;;8.20;;
28078;SDS011;15388;42.238;24.684;2023-07-31T08:28:44;9.17;;;8.23;;
28078;SDS011;15388;42.238;24.684;2023-07-31T08:31:09;8.93;;;8.13;;
28078;SDS011;15388;42.238;24.684;2023-07-31T08:33:35;11.73;;;10.73;;
28078;SDS011;15388;42.238;24.684;2023-07-31T08:36:01;15.82;;;14.43;;
28078;SDS011;15388;42.238;24.684;2023-07-31T08:38:26;14.70;;;13.23;;
28078;SDS011;15388;42.238;24.684;2023-07-31T08:40:52;14.23;;;12.98;;
28078;SDS011;15388;42.238;24.684;2023-07-31T08:43:18;14.88;;;13.48;;
28078;SDS011;15388;42.238;24.684;2023-07-31T08:45:45;15.93;;;14.55;;
28078;SDS011;15388;42.238;24.684;2023-07-31T08:48:11;17.80;;;16.10;;
28078;SDS011;15388;42.238;24.684;2023-07-31T08:50:37;16.00;;;14.60;;
28078;SDS011;15388;42.238;24.684;2023-07-31T08:53:02;15.50;;;14.10;;
28078;SDS011;15388;42.238;24.684;2023-07-31T08:55:28;16.45;;;14.90;;
28078;SDS011;15388;42.238;24.684;2023-07-31T08:57:53;17.38;;;15.68;;
28078;SDS011;15388;42.238;24.684;2023-07-31T09:00:19;16.63;;;15.05;;
28078;SDS011;15388;42.238;24.684;2023-07-31T09:05:21;15.57;;;13.27;;
28078;SDS011;15388;42.238;24.684;2023-07-31T09:07:48;16.85;;;15.25;;
28078;SDS011;15388;42.238;24.684;2023-07-31T09:10:14;15.20;;;13.88;;
28078;SDS011;15388;42.238;24.684;2023-07-31T09:12:39;16.02;;;14.40;;
28078;SDS011;15388;42.238;24.684;2023-07-31T09:15:05;16.70;;;15.20;;
28078;SDS011;15388;42.238;24.684;2023-07-31T09:17:31;16.35;;;14.73;;
28078;SDS011;15388;42.238;24.684;2023-07-31T09:19:56;17.10;;;15.60;;
28078;SDS011;15388;42.238;24.684;2023-07-31T09:22:32;17.42;;;15.82;;
28078;SDS011;15388;42.238;24.684;2023-07-31T09:25:04;15.63;;;14.15;;
28078;SDS011;15388;42.238;24.684;2023-07-31T09:27:56;15.10;;;13.80;;
28078;SDS011;15388;42.238;24.684;2023-07-31T09:30:22;14.70;;;13.40;;
28078;SDS011;15388;42.238;24.684;2023-07-31T09:32:48;15.15;;;13.63;;
28078;SDS011;15388;42.238;24.684;2023-07-31T09:35:16;16.98;;;15.57;;
28078;SDS011;15388;42.238;24.684;2023-07-31T09:37:43;17.45;;;15.82;;
28078;SDS011;15388;42.238;24.684;2023-07-31T09:40:08;15.80;;;14.25;;
28078;SDS011;15388;42.238;24.684;2023-07-31T09:42:34;14.50;;;13.10;;
28078;SDS011;15388;42.238;24.684;2023-07-31T09:45:09;16.75;;;15.25;;
28078;SDS011;15388;42.238;24.684;2023-07-31T09:47:34;17.35;;;14.95;;
28078;SDS011;15388;42.238;24.684;2023-07-31T09:50:00;15.68;;;13.95;;
28078;SDS011;15388;42.238;24.684;2023-07-31T09:52:26;14.13;;;12.83;;
28078;SDS011;15388;42.238;24.684;2023-07-31T09:54:51;15.48;;;14.05;;
28078;SDS011;15388;42.238;24.684;2023-07-31T09:57:16;15.20;;;13.90;;
28078;SDS011;15388;42.238;24.684;2023-07-31T09:59:42;14.73;;;13.40;;
28078;SDS011;15388;42.238;24.684;2023-07-31T10:02:08;15.15;;;13.73;;
28078;SDS011;15388;42.238;24.684;2023-07-31T10:04:35;15.30;;;13.75;;
28078;SDS011;15388;42.238;24.684;2023-07-31T10:07:01;12.70;;;11.47;;
28078;SDS011;15388;42.238;24.684;2023-07-31T10:09:27;12.87;;;11.70;;
28078;SDS011;15388;42.238;24.684;2023-07-31T10:11:55;13.00;;;11.82;;
28078;SDS011;15388;42.238;24.684;2023-07-31T10:14:22;11.55;;;10.57;;
28078;SDS011;15388;42.238;24.684;2023-07-31T10:19:14;11.67;;;10.67;;
28078;SDS011;15388;42.238;24.684;2023-07-31T10:21:39;12.40;;;11.40;;
28078;SDS011;15388;42.238;24.684;2023-07-31T10:26:31;10.33;;;9.50;;
28078;SDS011;15388;42.238;24.684;2023-07-31T10:28:58;10.27;;;9.27;;
28078;SDS011;15388;42.238;24.684;2023-07-31T10:31:25;11.40;;;10.25;;
28078;SDS011;15388;42.238;24.684;2023-07-31T10:33:51;12.03;;;11.03;;
28078;SDS011;15388;42.238;24.684;2023-07-31T10:36:17;11.95;;;10.93;;
28078;SDS011;15388;42.238;24.684;2023-07-31T10:38:43;12.10;;;11.07;;
28078;SDS011;15388;42.238;24.684;2023-07-31T10:41:09;11.93;;;11.00;;
28078;SDS011;15388;42.238;24.684;2023-07-31T10:43:35;12.10;;;9.88;;
28078;SDS011;15388;42.238;24.684;2023-07-31T10:48:27;10.20;;;9.20;;
28078;SDS011;15388;42.238;24.684;2023-07-31T10:50:57;11.30;;;9.23;;
28078;SDS011;15388;42.238;24.684;2023-07-31T10:53:29;10.70;;;9.63;;
28078;SDS011;15388;42.238;24.684;2023-07-31T10:55:58;9.40;;;8.45;;
28078;SDS011;15388;42.238;24.684;2023-07-31T10:58:24;9.82;;;8.80;;
28078;SDS011;15388;42.238;24.684;2023-07-31T11:00:49;10.23;;;8.97;;
28078;SDS011;15388;42.238;24.684;2023-07-31T11:03:18;11.68;;;10.07;;
28078;SDS011;15388;42.238;24.684;2023-07-31T11:05:51;11.07;;;9.13;;
28078;SDS011;15388;42.238;24.684;2023-07-31T11:08:19;10.23;;;9.20;;
28078;SDS011;15388;42.238;24.684;2023-07-31T11:10:46;10.07;;;9.02;;
28078;SDS011;15388;42.238;24.684;2023-07-31T11:13:12;10.60;;;9.60;;
28078;SDS011;15388;42.238;24.684;2023-07-31T11:15:37;10.35;;;9.45;;
28078;SDS011;15388;42.238;24.684;2023-07-31T11:18:03;10.03;;;8.50;;
28078;SDS011;15388;42.238;24.684;2023-07-31T11:20:32;10.83;;;8.60;;
28078;SDS011;15388;42.238;24.684;2023-07-31T11:22:58;9.60;;;8.45;;
28078;SDS011;15388;42.238;24.684;2023-07-31T11:25:24;14.98;;;8.20;;
28078;SDS011;15388;42.238;24.684;2023-07-31T11:27:49;11.83;;;8.17;;
28078;SDS011;15388;42.238;24.684;2023-07-31T11:30:19;8.93;;;8.00;;
28078;SDS011;15388;42.238;24.684;2023-07-31T11:32:44;7.80;;;7.10;;
28078;SDS011;15388;42.238;24.684;2023-07-31T11:35:12;12.10;;;7.33;;
28078;SDS011;15388;42.238;24.684;2023-07-31T11:37:41;8.05;;;7.10;;
28078;SDS011;15388;42.238;24.684;2023-07-31T11:40:07;8.25;;;7.53;;
28078;SDS011;15388;42.238;24.684;2023-07-31T11:42:32;8.40;;;7.07;;
28078;SDS011;15388;42.238;24.684;2023-07-31T11:45:01;7.30;;;6.40;;
28078;SDS011;15388;42.238;24.684;2023-07-31T11:47:26;9.85;;;7.63;;
28078;SDS011;15388;42.238;24.684;2023-07-31T11:49:52;8.53;;;7.83;;
28078;SDS011;15388;42.238;24.684;2023-07-31T11:52:17;8.20;;;7.60;;
28078;SDS011;15388;42.238;24.684;2023-07-31T11:54:45;7.35;;;6.75;;
28078;SDS011;15388;42.238;24.684;2023-07-31T11:57:10;7.03;;;6.47;;
28078;SDS011;15388;42.238;24.684;2023-07-31T11:59:37;7.10;;;6.50;;
28078;SDS011;15388;42.238;24.684;2023-07-31T12:02:03;7.78;;;7.13;;
28078;SDS011;15388;42.238;24.684;2023-07-31T12:04:29;7.30;;;6.73;;
28078;SDS011;15388;42.238;24.684;2023-07-31T12:06:54;7.43;;;6.83;;
28078;SDS011;15388;42.238;24.684;2023-07-31T12:09:20;6.67;;;6.13;;
28078;SDS011;15388;42.238;24.684;2023-07-31T12:11:46;7.60;;;6.90;;
28078;SDS011;15388;42.238;24.684;2023-07-31T12:14:21;7.65;;;7.05;;
28078;SDS011;15388;42.238;24.684;2023-07-31T12:16:54;6.97;;;6.38;;
28078;SDS011;15388;42.238;24.684;2023-07-31T12:19:19;7.93;;;7.20;;
28078;SDS011;15388;42.238;24.684;2023-07-31T12:21:45;8.13;;;5.70;;
28078;SDS011;15388;42.238;24.684;2023-07-31T12:24:10;7.10;;;6.53;;
28078;SDS011;15388;42.238;24.684;2023-07-31T12:26:35;6.57;;;5.97;;
28078;SDS011;15388;42.238;24.684;2023-07-31T12:29:01;8.17;;;6.67;;
28078;SDS011;15388;42.238;24.684;2023-07-31T12:31:27;6.73;;;6.13;;
28078;SDS011;15388;42.238;24.684;2023-07-31T12:33:52;8.48;;;6.57;;
28078;SDS011;15388;42.238;24.684;2023-07-31T12:36:21;6.67;;;6.07;;
28078;SDS011;15388;42.238;24.684;2023-07-31T12:38:47;6.97;;;6.38;;
28078;SDS011;15388;42.238;24.684;2023-07-31T12:41:13;7.63;;;5.83;;
28078;SDS011;15388;42.238;24.684;2023-07-31T12:43:39;6.03;;;5.53;;
28078;SDS011;15388;42.238;24.684;2023-07-31T12:46:05;6.03;;;5.63;;
28078;SDS011;15388;42.238;24.684;2023-07-31T12:48:32;6.53;;;5.97;;
28078;SDS011;15388;42.238;24.684;2023-07-31T12:50:58;7.93;;;7.20;;
28078;SDS011;15388;42.238;24.684;2023-07-31T12:53:23;6.80;;;6.20;;
28078;SDS011;15388;42.238;24.684;2023-07-31T12:55:48;6.17;;;5.77;;
28078;SDS011;15388;42.238;24.684;2023-07-31T12:58:14;7.53;;;5.67;;
28078;SDS011;15388;42.238;24.684;2023-07-31T13:00:39;6.27;;;5.77;;
28078;SDS011;15388;42.238;24.684;2023-07-31T13:03:05;6.50;;;5.47;;
28078;SDS011;15388;42.238;24.684;2023-07-31T13:05:30;9.30;;;5.30;;
28078;SDS011;15388;42.238;24.684;2023-07-31T13:07:55;7.37;;;5.00;;
28078;SDS011;15388;42.238;24.684;2023-07-31T13:10:22;6.50;;;5.90;;
28078;SDS011;15388;42.238;24.684;2023-07-31T13:12:47;6.72;;;6.13;;
28078;SDS011;15388;42.238;24.684;2023-07-31T13:15:13;7.80;;;5.70;;
28078;SDS011;15388;42.238;24.684;2023-07-31T13:17:40;6.30;;;5.78;;
28078;SDS011;15388;42.238;24.684;2023-07-31T13:20:06;6.70;;;5.70;;
28078;SDS011;15388;42.238;24.684;2023-07-31T13:22:31;6.13;;;5.63;;
28078;SDS011;15388;42.238;24.684;2023-07-31T13:24:57;6.60;;;5.53;;
28078;SDS011;15388;42.238;24.684;2023-07-31T13:27:22;6.27;;;5.73;;
28078;SDS011;15388;42.238;24.684;2023-07-31T13:29:49;6.40;;;5.90;;
28078;SDS011;15388;42.238;24.684;2023-07-31T13:32:15;6.60;;;6.00;;
28078;SDS011;15388;42.238;24.684;2023-07-31T13:34:41;6.57;;;5.97;;
28078;SDS011;15388;42.238;24.684;2023-07-31T13:37:06;6.50;;;6.00;;
28078;SDS011;15388;42.238;24.684;2023-07-31T13:39:31;6.13;;;5.63;;
28078;SDS011;15388;42.238;24.684;2023-07-31T13:44:23;9.03;;;6.53;;
28078;SDS011;15388;42.238;24.684;2023-07-31T13:46:49;8.93;;;6.77;;
28078;SDS011;15388;42.238;24.684;2023-07-31T13:49:14;8.10;;;6.93;;
28078;SDS011;15388;42.238;24.684;2023-07-31T13:51:39;7.57;;;6.97;;
28078;SDS011;15388;42.238;24.684;2023-07-31T13:54:05;7.93;;;7.07;;
28078;SDS011;15388;42.238;24.684;2023-07-31T13:56:31;8.00;;;7.30;;
28078;SDS011;15388;42.238;24.684;2023-07-31T13:58:57;12.80;;;7.70;;
28078;SDS011;15388;42.238;24.684;2023-07-31T14:01:22;7.00;;;6.30;;
28078;SDS011;15388;42.238;24.684;2023-07-31T14:03:48;8.83;;;7.17;;
28078;SDS011;15388;42.238;24.684;2023-07-31T14:06:13;7.13;;;6.43;;
28078;SDS011;15388;42.238;24.684;2023-07-31T14:08:38;6.70;;;6.10;;
28078;SDS011;15388;42.238;24.684;2023-07-31T14:11:04;7.43;;;6.60;;
28078;SDS011;15388;42.238;24.684;2023-07-31T14:13:29;6.33;;;5.77;;
28078;SDS011;15388;42.238;24.684;2023-07-31T14:15:54;6.43;;;5.93;;
28078;SDS011;15388;42.238;24.684;2023-07-31T14:18:20;7.07;;;6.47;;
28078;SDS011;15388;42.238;24.684;2023-07-31T14:20:45;6.90;;;6.30;;
28078;SDS011;15388;42.238;24.684;2023-07-31T14:23:10;11.43;;;6.53;;
28078;SDS011;15388;42.238;24.684;2023-07-31T14:25:36;7.53;;;6.53;;
28078;SDS011;15388;42.238;24.684;2023-07-31T14:28:01;9.63;;;6.37;;
28078;SDS011;15388;42.238;24.684;2023-07-31T14:30:27;6.63;;;6.13;;
28078;SDS011;15388;42.238;24.684;2023-07-31T14:32:52;7.43;;;5.77;;
28078;SDS011;15388;42.238;24.684;2023-07-31T14:35:17;12.20;;;7.77;;
28078;SDS011;15388;42.238;24.684;2023-07-31T14:37:43;6.50;;;5.53;;
28078;SDS011;15388;42.238;24.684;2023-07-31T14:40:10;5.93;;;5.28;;
28078;SDS011;15388;42.238;24.684;2023-07-31T14:45:01;8.33;;;6.03;;